Time;durP1;ratioP1;P1;durP2;ratioP2;P2;SDS_P1;SDS_P2;PMS_P1;PMS_P2;Temp;Humidity;BMP_temperature;BMP_pressure;BME280_temperature;BME280_humidity;BME280_pressure;Samples;Min_cycle;Max_cycle;Signal;HPM_P1;HPM_P2
2023/03/11 00:01:49;;;;;;;6.30;1.73;;;1.50;99.90;;;;;;5096470;28;20191;-51
2023/03/11 00:04:15;;;;;;;8.57;2.23;;;1.50;99.90;;;;;;5096373;28;20186;-50
2023/03/11 00:06:40;;;;;;;7.30;2.07;;;1.50;99.90;;;;;;5097030;28;20223;-52
2023/03/11 00:09:06;;;;;;;8.40;2.50;;;1.50;99.90;;;;;;5094918;28;20220;-50
2023/03/11 00:11:32;;;;;;;8.53;1.93;;;1.50;99.90;;;;;;5094662;28;20205;-51
2023/03/11 00:13:57;;;;;;;11.10;2.20;;;1.50;99.90;;;;;;5094694;28;20179;-51
2023/03/11 00:16:23;;;;;;;6.57;2.00;;;1.50;99.90;;;;;;5094376;28;20186;-51
2023/03/11 00:18:52;;;;;;;7.63;2.17;;;1.50;99.90;;;;;;5094369;28;20259;-51
2023/03/11 00:21:19;;;;;;;7.53;2.20;;;1.50;99.90;;;;;;5094995;28;20612;-52
2023/03/11 00:23:45;;;;;;;6.10;2.47;;;1.50;99.90;;;;;;5094431;28;20224;-53
2023/03/11 00:26:11;;;;;;;8.30;2.13;;;1.50;99.90;;;;;;5093730;28;20197;-51
2023/03/11 00:28:36;;;;;;;10.30;1.97;;;1.50;99.90;;;;;;5094243;28;20178;-52
2023/03/11 00:31:02;;;;;;;7.47;1.80;;;1.70;99.90;;;;;;5094291;28;20244;-53
2023/03/11 00:33:28;;;;;;;6.43;1.73;;;1.40;99.90;;;;;;5094075;28;20207;-52
2023/03/11 00:35:53;;;;;;;5.80;1.93;;;1.40;99.90;;;;;;5094334;28;20178;-50
2023/03/11 00:38:20;;;;;;;6.80;1.70;;;1.40;99.90;;;;;;5094169;28;20697;-52
2023/03/11 00:40:47;;;;;;;9.43;2.23;;;1.40;99.90;;;;;;5094010;28;20236;-53
2023/03/11 00:43:13;;;;;;;8.03;1.50;;;1.40;99.90;;;;;;5093976;28;20203;-51
2023/03/11 00:45:39;;;;;;;5.57;1.70;;;1.40;99.90;;;;;;5094016;28;20174;-52
2023/03/11 00:48:06;;;;;;;6.83;2.10;;;1.40;99.90;;;;;;5075820;28;20175;-50
2023/03/11 00:50:34;;;;;;;6.93;1.43;;;1.40;99.90;;;;;;5094242;28;20226;-51
2023/03/11 00:53:00;;;;;;;4.43;1.63;;;1.40;99.90;;;;;;5094378;28;20677;-51
2023/03/11 00:55:31;;;;;;;11.43;1.67;;;1.40;99.90;;;;;;5094076;28;20175;-51
2023/03/11 00:57:59;;;;;;;7.13;1.80;;;1.40;99.90;;;;;;5093627;28;20199;-54
2023/03/11 01:00:26;;;;;;;11.63;1.97;;;1.40;99.90;;;;;;5093740;28;20203;-51
2023/03/11 01:02:53;;;;;;;8.33;1.63;;;1.40;99.90;;;;;;5094393;28;20198;-52
2023/03/11 01:05:21;;;;;;;3.60;1.40;;;1.30;99.90;;;;;;5093650;28;20198;-52
2023/03/11 01:07:46;;;;;;;5.40;1.60;;;1.30;99.90;;;;;;5093603;28;20206;-52
2023/03/11 01:10:12;;;;;;;7.57;1.97;;;1.20;99.90;;;;;;5093517;28;20237;-52
2023/03/11 01:12:38;;;;;;;6.43;1.53;;;1.20;99.90;;;;;;5093819;28;20186;-52
2023/03/11 01:15:05;;;;;;;5.10;1.60;;;1.10;99.90;;;;;;5093741;28;20178;-51
2023/03/11 01:17:30;;;;;;;4.83;1.57;;;1.10;99.90;;;;;;5093715;28;20210;-53
2023/03/11 01:19:56;;;;;;;4.50;1.70;;;1.10;99.90;;;;;;5093586;28;20237;-52
2023/03/11 01:22:22;;;;;;;9.03;1.47;;;1.00;99.90;;;;;;5093764;28;20220;-51
2023/03/11 01:24:47;;;;;;;5.43;1.50;;;1.00;99.90;;;;;;5093316;28;20167;-54
2023/03/11 01:27:13;;;;;;;8.50;1.87;;;0.90;99.90;;;;;;5093431;28;20186;-53
2023/03/11 01:29:38;;;;;;;6.93;1.50;;;0.90;99.90;;;;;;5093590;28;20189;-54
2023/03/11 01:32:05;;;;;;;5.60;1.73;;;0.90;99.90;;;;;;5093508;28;20198;-53
2023/03/11 01:34:34;;;;;;;9.20;2.00;;;0.80;99.90;;;;;;5075239;28;20182;-48
2023/03/11 01:37:00;;;;;;;7.97;1.67;;;0.70;99.90;;;;;;5093550;28;20182;-46
2023/03/11 01:39:25;;;;;;;4.77;1.73;;;0.70;99.90;;;;;;5096253;28;20740;-47
2023/03/11 01:41:52;;;;;;;11.10;1.87;;;0.70;99.90;;;;;;5097266;28;20209;-47
2023/03/11 01:44:18;;;;;;;2.60;1.50;;;0.60;99.90;;;;;;5097654;28;20170;-47
2023/03/11 01:46:52;;;;;;;8.70;2.07;;;0.60;99.90;;;;;;5097855;28;20514;-45
2023/03/11 01:49:19;;;;;;;11.83;1.77;;;0.60;99.90;;;;;;5097296;28;20296;-48
2023/03/11 01:51:49;;;;;;;9.33;1.97;;;0.60;99.90;;;;;;5097032;28;20678;-47
2023/03/11 01:54:17;;;;;;;6.37;1.70;;;0.60;99.90;;;;;;5097112;28;20193;-46
2023/03/11 01:56:44;;;;;;;5.37;1.73;;;0.60;99.90;;;;;;5097508;28;20242;-47
2023/03/11 01:59:14;;;;;;;10.57;1.97;;;0.50;99.90;;;;;;5097255;28;20286;-46
2023/03/11 02:01:51;;;;;;;6.37;2.13;;;0.50;99.90;;;;;;5096987;28;20255;-48
2023/03/11 02:04:17;;;;;;;8.87;1.63;;;0.50;99.90;;;;;;5097108;28;20211;-48
2023/03/11 02:06:43;;;;;;;9.53;1.73;;;0.50;99.90;;;;;;5096979;28;20619;-47
2023/03/11 02:09:08;;;;;;;3.90;1.40;;;0.50;99.90;;;;;;5097199;28;20265;-45
2023/03/11 02:11:34;;;;;;;6.33;1.70;;;0.40;99.90;;;;;;5097976;28;20278;-47
2023/03/11 02:14:03;;;;;;;6.27;1.53;;;0.40;99.90;;;;;;5096960;28;20182;-46
2023/03/11 02:16:28;;;;;;;3.20;1.77;;;0.30;99.90;;;;;;5097206;28;20208;-45
2023/03/11 02:18:56;;;;;;;4.33;1.57;;;0.30;99.90;;;;;;5096805;28;20319;-46
2023/03/11 02:21:25;;;;;;;11.20;1.60;;;0.30;99.90;;;;;;5097811;28;20202;-47
2023/03/11 02:24:10;;;;;;;4.93;1.37;;;0.30;99.90;;;;;;5096812;28;20183;-46
2023/03/11 02:27:00;;;;;;;5.43;1.73;;;0.30;99.90;;;;;;5096488;28;20186;-45
2023/03/11 02:29:27;;;;;;;6.13;1.37;;;0.30;99.90;;;;;;5096730;28;20186;-45
2023/03/11 02:31:58;;;;;;;3.60;1.50;;;0.30;99.90;;;;;;5096349;28;20191;-46
2023/03/11 02:34:28;;;;;;;4.83;1.53;;;0.20;99.90;;;;;;5096705;28;20163;-45
2023/03/11 02:36:53;;;;;;;7.37;1.80;;;0.20;99.90;;;;;;5096306;28;20643;-48
2023/03/11 02:39:49;;;;;;;4.23;1.53;;;0.20;99.90;;;;;;5096296;28;20289;-45
2023/03/11 02:42:30;;;;;;;3.77;1.40;;;0.20;99.90;;;;;;5075881;28;20645;-46
2023/03/11 02:45:07;;;;;;;5.33;1.43;;;0.20;99.90;;;;;;5078644;28;20166;-43
2023/03/11 02:47:36;;;;;;;2.70;1.33;;;0.20;99.90;;;;;;5096603;28;20573;-45
2023/03/11 02:50:02;;;;;;;6.67;2.00;;;0.10;99.90;;;;;;5095706;28;20267;-46
2023/03/11 02:52:30;;;;;;;3.40;1.50;;;0.10;99.90;;;;;;5096285;28;20185;-48
2023/03/11 02:54:56;;;;;;;5.40;1.83;;;0.10;99.90;;;;;;5096238;28;20567;-44
2023/03/11 02:57:21;;;;;;;6.53;2.03;;;0.10;99.90;;;;;;5096006;28;20262;-46
2023/03/11 02:59:47;;;;;;;7.57;2.30;;;0.10;99.90;;;;;;5095997;28;20277;-45
2023/03/11 03:02:13;;;;;;;3.60;1.53;;;0.10;99.90;;;;;;5096375;28;20173;-46
2023/03/11 03:04:38;;;;;;;7.63;1.70;;;0.00;99.90;;;;;;5095863;28;20174;-46
2023/03/11 03:07:04;;;;;;;5.67;1.80;;;0.00;99.90;;;;;;5095840;28;20598;-46
2023/03/11 03:09:29;;;;;;;4.77;2.10;;;0.00;99.90;;;;;;5077539;28;20549;-48
2023/03/11 03:11:55;;;;;;;7.40;1.87;;;0.00;99.90;;;;;;5095926;28;20198;-45
2023/03/11 03:14:20;;;;;;;4.80;1.43;;;-0.10;99.90;;;;;;5095981;28;20186;-47
2023/03/11 03:16:46;;;;;;;4.60;1.47;;;-0.10;99.90;;;;;;5095661;28;20175;-44
2023/03/11 03:19:11;;;;;;;7.20;2.00;;;-0.10;99.90;;;;;;5095459;28;20202;-44
2023/03/11 03:21:37;;;;;;;8.10;1.53;;;-0.10;99.90;;;;;;5096462;28;20240;-45
2023/03/11 03:24:03;;;;;;;6.73;1.93;;;-0.10;99.90;;;;;;5095658;28;20170;-47
2023/03/11 03:26:28;;;;;;;6.43;2.00;;;-0.10;99.90;;;;;;5095399;28;20199;-46
2023/03/11 03:28:54;;;;;;;6.17;1.77;;;-0.10;99.90;;;;;;5095320;28;20174;-47
2023/03/11 03:31:20;;;;;;;8.13;1.93;;;-0.10;99.90;;;;;;5095579;28;20599;-51
2023/03/11 03:33:45;;;;;;;3.80;1.33;;;-0.20;99.90;;;;;;5095468;28;20205;-50
2023/03/11 03:36:13;;;;;;;3.50;1.50;;;-0.20;99.90;;;;;;5095242;28;20189;-52
2023/03/11 03:38:39;;;;;;;7.70;1.80;;;-0.30;99.90;;;;;;5095344;28;20209;-52
2023/03/11 03:41:05;;;;;;;6.33;1.63;;;-0.20;99.90;;;;;;5095659;28;20198;-50
2023/03/11 03:43:30;;;;;;;4.03;1.30;;;-0.30;99.90;;;;;;5095808;28;20731;-51
2023/03/11 03:45:57;;;;;;;6.53;2.07;;;-0.30;99.90;;;;;;5095123;28;20303;-50
2023/03/11 03:48:22;;;;;;;6.20;1.53;;;-0.30;99.90;;;;;;5077244;28;20186;-53
2023/03/11 03:50:48;;;;;;;8.80;1.90;;;-0.40;99.90;;;;;;5094848;28;20440;-51
2023/03/11 03:53:13;;;;;;;6.73;1.63;;;-0.40;99.90;;;;;;5094860;28;20608;-51
2023/03/11 03:55:39;;;;;;;4.70;1.70;;;-0.40;99.90;;;;;;5095297;28;20178;-52
2023/03/11 03:58:05;;;;;;;5.30;2.10;;;-0.50;99.90;;;;;;5095221;28;20234;-50
2023/03/11 04:00:30;;;;;;;4.40;1.63;;;-0.50;99.90;;;;;;5094085;28;20672;-52
2023/03/11 04:02:56;;;;;;;6.87;1.97;;;-0.50;99.90;;;;;;5094465;28;20180;-49
2023/03/11 04:05:25;;;;;;;8.50;1.97;;;-0.50;99.90;;;;;;5094889;28;20171;-50
2023/03/11 04:07:51;;;;;;;4.97;1.63;;;-0.50;99.90;;;;;;5094814;28;20183;-52
2023/03/11 04:10:17;;;;;;;6.00;1.90;;;-0.50;99.90;;;;;;5094723;28;20436;-51
2023/03/11 04:12:42;;;;;;;5.43;2.00;;;-0.60;99.90;;;;;;5094445;28;20174;-53
2023/03/11 04:15:08;;;;;;;7.20;2.00;;;-0.60;99.90;;;;;;5094853;28;20178;-50
2023/03/11 04:17:35;;;;;;;8.63;1.77;;;-0.60;99.90;;;;;;5094565;28;20174;-50
2023/03/11 04:20:00;;;;;;;9.13;4.40;;;-0.60;99.90;;;;;;5076072;28;20316;-49
2023/03/11 04:22:26;;;;;;;11.73;2.43;;;-0.70;99.90;;;;;;5096270;28;20208;-45
2023/03/11 04:24:52;;;;;;;7.70;1.97;;;-0.70;99.90;;;;;;5094425;28;20591;-47
2023/03/11 04:27:17;;;;;;;6.90;2.07;;;-0.70;99.90;;;;;;5094333;28;20533;-46
2023/03/11 04:29:43;;;;;;;5.13;1.90;;;-0.70;99.90;;;;;;5094330;28;20183;-47
2023/03/11 04:32:08;;;;;;;6.57;1.97;;;-0.80;99.90;;;;;;5094375;28;20186;-44
2023/03/11 04:34:34;;;;;;;8.00;2.20;;;-0.80;99.90;;;;;;5094129;28;20658;-46
2023/03/11 04:36:59;;;;;;;5.77;1.87;;;-0.80;99.90;;;;;;5094336;28;20177;-45
2023/03/11 04:39:25;;;;;;;8.20;3.10;;;-0.90;99.90;;;;;;5094139;28;20208;-45
2023/03/11 04:41:50;;;;;;;6.07;2.00;;;-0.90;99.90;;;;;;5093912;28;20201;-48
2023/03/11 04:44:16;;;;;;;5.67;2.13;;;-0.90;99.90;;;;;;5093965;28;20268;-47
2023/03/11 04:46:42;;;;;;;10.23;2.23;;;-0.90;99.90;;;;;;5075715;28;20182;-45
2023/03/11 04:49:08;;;;;;;9.37;2.13;;;-1.00;99.90;;;;;;5094337;28;20180;-45
2023/03/11 04:51:34;;;;;;;8.03;2.27;;;-0.90;99.90;;;;;;5093683;28;20212;-45
2023/03/11 04:53:59;;;;;;;12.30;2.60;;;-1.00;99.90;;;;;;5093791;28;20426;-44
2023/03/11 04:56:25;;;;;;;9.23;2.40;;;-1.00;99.90;;;;;;5093753;28;20198;-45
2023/03/11 04:58:51;;;;;;;5.37;2.20;;;-1.00;99.90;;;;;;5093763;28;20222;-46
2023/03/11 05:01:16;;;;;;;8.60;1.90;;;-1.00;99.90;;;;;;5075930;28;20195;-46
2023/03/11 05:03:42;;;;;;;4.27;2.20;;;-1.00;99.90;;;;;;5093637;28;20640;-45
2023/03/11 05:06:07;;;;;;;7.93;2.70;;;-1.10;99.90;;;;;;5093606;28;20606;-46
2023/03/11 05:08:33;;;;;;;7.10;3.10;;;-1.00;99.90;;;;;;5093579;28;20181;-49
2023/03/11 05:10:59;;;;;;;9.80;2.47;;;-1.00;99.90;;;;;;5093727;28;20530;-46
2023/03/11 05:13:24;;;;;;;8.13;2.93;;;-1.10;99.90;;;;;;5093508;28;20208;-46
2023/03/11 05:15:50;;;;;;;8.27;2.60;;;-1.00;99.90;;;;;;5093480;28;20181;-45
2023/03/11 05:18:16;;;;;;;3.70;2.00;;;-1.10;99.90;;;;;;5093356;28;20198;-46
2023/03/11 05:20:41;;;;;;;7.37;2.43;;;-1.10;99.90;;;;;;5093624;28;20199;-45
2023/03/11 05:23:07;;;;;;;7.73;2.40;;;-1.10;99.90;;;;;;5095419;28;20177;-48
2023/03/11 05:25:34;;;;;;;5.60;2.60;;;-1.10;99.90;;;;;;5093744;28;20191;-46
2023/03/11 05:27:59;;;;;;;7.40;2.33;;;-1.00;99.90;;;;;;5094247;28;20264;-47
2023/03/11 05:30:25;;;;;;;11.90;2.60;;;-1.10;99.90;;;;;;5093944;28;20454;-48
2023/03/11 05:32:51;;;;;;;6.83;2.30;;;-1.10;99.90;;;;;;5093812;28;20205;-48
2023/03/11 05:35:17;;;;;;;9.30;3.03;;;-1.00;99.90;;;;;;5093719;28;20700;-46
2023/03/11 05:37:42;;;;;;;7.50;2.77;;;-1.00;99.90;;;;;;5093463;28;20185;-49
2023/03/11 05:40:10;;;;;;;14.53;3.10;;;-1.00;99.90;;;;;;5093794;28;20239;-47
2023/03/11 05:42:36;;;;;;;7.67;3.03;;;-1.00;99.90;;;;;;5093819;28;20267;-48
2023/03/11 05:45:02;;;;;;;7.60;2.77;;;-1.00;99.90;;;;;;5093514;28;20429;-47
2023/03/11 05:47:27;;;;;;;10.53;2.63;;;-1.00;99.90;;;;;;5093737;28;20564;-48
2023/03/11 05:49:53;;;;;;;9.83;2.53;;;-1.00;99.90;;;;;;5093528;28;20180;-48
2023/03/11 05:52:19;;;;;;;7.77;2.80;;;-1.00;99.90;;;;;;5093616;28;20215;-47
2023/03/11 05:54:49;;;;;;;8.23;2.70;;;-1.00;99.90;;;;;;5093979;28;20160;-50
2023/03/11 05:57:14;;;;;;;5.43;2.30;;;-0.90;99.90;;;;;;5094213;28;20659;-52
2023/03/11 05:59:40;;;;;;;10.53;3.03;;;-1.00;99.90;;;;;;5093221;28;20483;-52
2023/03/11 06:02:06;;;;;;;6.33;2.80;;;-0.90;99.90;;;;;;5093065;28;20262;-50
2023/03/11 06:04:31;;;;;;;6.57;3.00;;;-0.90;99.90;;;;;;5093242;28;20234;-52
2023/03/11 06:06:57;;;;;;;6.87;2.70;;;-0.90;99.90;;;;;;5075054;28;20179;-50
2023/03/11 06:09:23;;;;;;;6.93;2.67;;;-1.00;99.90;;;;;;5093168;28;20177;-50
2023/03/11 06:11:48;;;;;;;9.43;2.90;;;-1.00;99.90;;;;;;5092989;28;20192;-50
2023/03/11 06:14:14;;;;;;;10.30;3.20;;;-1.00;99.90;;;;;;5093309;28;20189;-50
2023/03/11 06:16:40;;;;;;;6.77;3.10;;;-0.90;99.90;;;;;;5093261;28;20183;-51
2023/03/11 06:19:06;;;;;;;9.70;3.33;;;-0.90;99.90;;;;;;5092898;28;20200;-51
2023/03/11 06:21:32;;;;;;;7.87;3.47;;;-1.00;99.90;;;;;;5094079;28;20433;-51
2023/03/11 06:23:57;;;;;;;5.50;2.90;;;-0.90;99.90;;;;;;5075461;28;20248;-50
2023/03/11 06:26:23;;;;;;;12.83;2.97;;;-1.00;99.90;;;;;;5096745;28;20257;-51
2023/03/11 06:28:50;;;;;;;9.27;2.87;;;-1.00;99.90;;;;;;5099620;28;20255;-50
2023/03/11 06:31:19;;;;;;;9.30;3.50;;;-1.00;99.90;;;;;;5101476;28;20476;-51
2023/03/11 06:33:46;;;;;;;9.17;3.57;;;-1.00;99.90;;;;;;5101188;28;20769;-50
2023/03/11 06:36:14;;;;;;;6.07;2.77;;;-1.00;99.90;;;;;;5080018;28;20429;-52
2023/03/11 06:38:39;;;;;;;7.43;3.20;;;-1.00;99.90;;;;;;5097871;28;20476;-51
2023/03/11 06:41:06;;;;;;;7.37;3.50;;;-1.00;99.90;;;;;;5096537;28;20634;-51
2023/03/11 06:43:33;;;;;;;14.30;3.20;;;-1.00;99.90;;;;;;5096355;28;20179;-51
2023/03/11 06:45:59;;;;;;;7.83;3.47;;;-0.90;99.90;;;;;;5096360;28;20497;-52
2023/03/11 06:48:26;;;;;;;11.43;3.17;;;-0.90;99.90;;;;;;5096156;28;20413;-52
2023/03/11 06:50:56;;;;;;;12.07;3.13;;;-1.00;99.90;;;;;;5096032;28;20426;-51
2023/03/11 06:53:22;;;;;;;11.80;3.77;;;-1.00;99.90;;;;;;5096544;28;20422;-51
2023/03/11 06:56:06;;;;;;;10.53;2.90;;;-1.00;99.90;;;;;;5096288;28;20421;-51
2023/03/11 06:58:33;;;;;;;8.07;3.10;;;-0.90;99.90;;;;;;5096332;28;20935;-51
2023/03/11 07:01:01;;;;;;;8.57;3.13;;;-0.90;99.90;;;;;;5096217;28;20469;-50
2023/03/11 07:03:27;;;;;;;9.90;3.50;;;-0.90;99.90;;;;;;5095962;28;20415;-50
2023/03/11 07:05:53;;;;;;;11.93;3.53;;;-0.80;99.90;;;;;;5095849;28;20419;-49
2023/03/11 07:08:18;;;;;;;12.20;3.83;;;-0.80;99.90;;;;;;5095757;28;20416;-50
2023/03/11 07:10:44;;;;;;;9.47;3.20;;;-0.80;99.90;;;;;;5095781;28;20195;-50
2023/03/11 07:13:10;;;;;;;8.40;3.83;;;-0.70;99.90;;;;;;5095947;28;20186;-50
2023/03/11 07:15:35;;;;;;;10.60;3.27;;;-0.60;99.90;;;;;;5095714;28;20179;-51
2023/03/11 07:18:01;;;;;;;8.87;3.77;;;-0.60;99.90;;;;;;5095770;28;20193;-51
2023/03/11 07:20:27;;;;;;;7.30;3.50;;;-0.50;99.90;;;;;;5096101;28;20645;-51
2023/03/11 07:22:52;;;;;;;6.13;3.63;;;-0.40;99.90;;;;;;5096835;28;20175;-46
2023/03/11 07:25:18;;;;;;;9.27;3.90;;;-0.30;99.90;;;;;;5095316;28;20239;-44
2023/03/11 07:27:43;;;;;;;11.90;3.97;;;-0.30;99.90;;;;;;5095402;28;20165;-49
2023/03/11 07:30:10;;;;;;;10.93;4.00;;;-0.20;99.90;;;;;;5095259;28;20191;-44
2023/03/11 07:32:35;;;;;;;9.40;3.97;;;-0.10;99.90;;;;;;5095645;28;20181;-45
2023/03/11 07:35:01;;;;;;;7.80;3.70;;;0.00;99.90;;;;;;5095162;28;20414;-48
2023/03/11 07:37:26;;;;;;;15.47;4.53;;;0.10;99.90;;;;;;5094509;28;20717;-45
2023/03/11 07:39:52;;;;;;;16.73;4.30;;;0.20;99.90;;;;;;5095048;28;20566;-45
2023/03/11 07:42:17;;;;;;;9.37;4.30;;;0.40;99.90;;;;;;5095170;28;20536;-46
2023/03/11 07:44:43;;;;;;;10.70;4.43;;;0.50;99.90;;;;;;5095589;28;20181;-46
2023/03/11 07:47:09;;;;;;;8.83;3.80;;;0.60;99.90;;;;;;5095955;28;20176;-46
2023/03/11 07:49:35;;;;;;;12.50;4.27;;;0.70;99.90;;;;;;5095766;28;20211;-49
2023/03/11 07:52:00;;;;;;;7.10;4.03;;;0.80;99.90;;;;;;5076767;28;20208;-45
2023/03/11 07:54:26;;;;;;;8.37;3.77;;;0.90;99.90;;;;;;5095106;28;20183;-46
2023/03/11 07:56:51;;;;;;;9.67;4.63;;;1.00;99.90;;;;;;5095252;28;20720;-46
2023/03/11 07:59:17;;;;;;;8.13;4.00;;;1.00;99.90;;;;;;5094812;28;20223;-46
2023/03/11 08:01:46;;;;;;;9.87;3.97;;;1.20;99.90;;;;;;5095003;28;20695;-48
2023/03/11 08:04:12;;;;;;;9.87;3.70;;;1.30;99.90;;;;;;5094791;28;20196;-47
2023/03/11 08:06:40;;;;;;;9.93;4.03;;;1.40;99.90;;;;;;5094962;28;20181;-45
2023/03/11 08:09:08;;;;;;;12.10;4.17;;;1.50;99.90;;;;;;5094618;28;20427;-46
2023/03/11 08:11:34;;;;;;;11.83;3.97;;;1.60;99.90;;;;;;5094707;28;20438;-46
2023/03/11 08:14:00;;;;;;;12.20;4.13;;;1.70;99.90;;;;;;5094719;28;20782;-43
2023/03/11 08:16:26;;;;;;;7.83;3.97;;;1.80;99.90;;;;;;5094505;28;20419;-48
2023/03/11 08:18:53;;;;;;;14.13;4.33;;;1.90;99.90;;;;;;5094256;28;20459;-47
2023/03/11 08:21:24;;;;;;;9.93;4.30;;;2.00;99.90;;;;;;5095035;28;20654;-45
2023/03/11 08:23:50;;;;;;;7.97;4.30;;;2.00;99.90;;;;;;5095265;28;20804;-46
2023/03/11 08:26:18;;;;;;;13.27;4.63;;;2.00;99.90;;;;;;5094107;28;20193;-44
2023/03/11 08:28:44;;;;;;;10.13;4.77;;;2.10;99.90;;;;;;5094149;28;20186;-46
2023/03/11 08:31:22;;;;;;;9.00;4.37;;;2.30;99.90;;;;;;5094256;28;20193;-46
2023/03/11 08:33:49;;;;;;;12.43;4.93;;;2.30;99.90;;;;;;5094468;28;20193;-46
2023/03/11 08:36:16;;;;;;;8.40;4.50;;;2.30;99.90;;;;;;5094058;28;20570;-47
2023/03/11 08:38:41;;;;;;;12.47;4.40;;;2.40;99.90;;;;;;5093955;28;20614;-46
2023/03/11 08:41:07;;;;;;;14.73;4.13;;;2.50;99.90;;;;;;5094189;28;20212;-48
2023/03/11 08:43:33;;;;;;;8.20;4.27;;;2.60;99.90;;;;;;5094275;28;20686;-47
2023/03/11 08:46:00;;;;;;;17.47;5.20;;;2.70;99.90;;;;;;5093876;28;20262;-45
2023/03/11 08:48:26;;;;;;;11.93;5.10;;;2.80;99.90;;;;;;5094141;28;20684;-48
2023/03/11 08:50:52;;;;;;;11.43;4.03;;;2.80;99.90;;;;;;5075677;28;20202;-47
2023/03/11 08:53:17;;;;;;;11.50;4.17;;;2.90;99.90;;;;;;5093928;28;20220;-46
2023/03/11 08:55:43;;;;;;;8.03;3.50;;;3.00;99.90;;;;;;5093720;28;20187;-46
2023/03/11 08:58:08;;;;;;;8.60;3.67;;;3.10;99.90;;;;;;5093737;28;20202;-46
2023/03/11 09:00:34;;;;;;;7.70;3.50;;;3.10;99.90;;;;;;5094000;28;20203;-46
2023/03/11 09:02:59;;;;;;;11.37;3.67;;;3.20;99.90;;;;;;5094190;28;20243;-48
2023/03/11 09:05:25;;;;;;;8.90;3.93;;;3.30;99.90;;;;;;5093659;28;20189;-47
2023/03/11 09:07:51;;;;;;;10.43;3.90;;;3.30;99.90;;;;;;5093871;28;20189;-49
2023/03/11 09:10:16;;;;;;;8.57;3.43;;;3.50;99.90;;;;;;5093725;28;20666;-45
2023/03/11 09:12:42;;;;;;;6.20;2.97;;;3.50;99.90;;;;;;5093819;28;20642;-48
2023/03/11 09:15:08;;;;;;;6.13;3.40;;;3.50;99.90;;;;;;5093608;28;20205;-47
2023/03/11 09:17:34;;;;;;;10.30;3.87;;;3.50;99.90;;;;;;5093587;28;20185;-47
2023/03/11 09:20:00;;;;;;;6.27;2.90;;;3.60;99.90;;;;;;5093919;28;20628;-47
2023/03/11 09:22:26;;;;;;;15.37;3.20;;;3.70;99.90;;;;;;5094668;28;20240;-49
2023/03/11 09:24:51;;;;;;;7.73;3.60;;;3.60;99.90;;;;;;5096170;28;20179;-47
2023/03/11 09:27:17;;;;;;;6.77;2.80;;;3.70;99.90;;;;;;5093458;28;20187;-47
2023/03/11 09:29:43;;;;;;;9.83;3.23;;;3.60;99.90;;;;;;5093520;28;20247;-46
2023/03/11 09:32:13;;;;;;;4.13;2.47;;;3.70;99.90;;;;;;5075338;28;20650;-47
2023/03/11 09:34:39;;;;;;;6.17;2.90;;;3.70;99.90;;;;;;5093618;28;20180;-47
2023/03/11 09:37:04;;;;;;;4.63;2.27;;;3.70;99.90;;;;;;5093407;28;20195;-46
2023/03/11 09:39:30;;;;;;;12.90;3.43;;;3.80;99.90;;;;;;5094048;28;20207;-48
2023/03/11 09:42:26;;;;;;;5.00;2.53;;;3.90;99.90;;;;;;5093181;28;20203;-49
2023/03/11 09:45:17;;;;;;;10.57;2.07;;;4.00;99.90;;;;;;5093530;28;20216;-49
2023/03/11 09:48:07;;;;;;;4.43;2.20;;;4.10;99.90;;;;;;5093501;28;20173;-48
2023/03/11 09:50:46;;;;;;;5.70;2.33;;;4.20;99.90;;;;;;5093459;28;20205;-48
2023/03/11 09:53:43;;;;;;;7.27;2.53;;;4.20;99.90;;;;;;5093972;28;20171;-49
2023/03/11 09:56:12;;;;;;;7.17;2.73;;;4.20;99.90;;;;;;5093525;28;20256;-50
2023/03/11 09:58:50;;;;;;;4.10;2.20;;;4.50;99.90;;;;;;5093118;28;20262;-49
2023/03/11 10:01:29;;;;;;;5.07;1.63;;;4.70;99.90;;;;;;5098344;28;20263;-49
2023/03/11 10:03:59;;;;;;;7.53;1.50;;;4.80;99.90;;;;;;5097824;28;20178;-47
2023/03/11 10:06:28;;;;;;;1.63;0.90;;;4.80;99.90;;;;;;5097238;28;20174;-45
2023/03/11 10:09:27;;;;;;;3.07;0.97;;;4.80;99.90;;;;;;5096920;28;20182;-45
2023/03/11 10:12:09;;;;;;;3.63;1.30;;;4.80;99.90;;;;;;5097059;28;20249;-48
2023/03/11 10:15:00;;;;;;;2.77;1.00;;;4.70;99.90;;;;;;5097043;28;20163;-45
2023/03/11 10:17:41;;;;;;;1.83;0.90;;;4.70;99.90;;;;;;5085241;28;20191;-47
2023/03/11 10:20:36;;;;;;;3.33;0.80;;;4.70;99.90;;;;;;5096761;28;20293;-47
2023/03/11 10:23:25;;;;;;;1.73;0.70;;;4.90;99.90;;;;;;5098480;28;20191;-47
2023/03/11 10:26:19;;;;;;;4.20;1.20;;;5.00;99.90;;;;;;5096665;28;20265;-48
2023/03/11 10:28:57;;;;;;;2.70;1.00;;;5.00;99.90;;;;;;5096429;28;20651;-47
2023/03/11 10:31:28;;;;;;;6.63;1.90;;;5.00;99.90;;;;;;5078299;28;20235;-49
2023/03/11 10:34:14;;;;;;;4.40;1.33;;;5.00;99.90;;;;;;5096704;28;20179;-47
2023/03/11 10:37:03;;;;;;;2.93;1.07;;;4.90;99.90;;;;;;5096743;28;20159;-48
2023/03/11 10:39:32;;;;;;;3.20;1.10;;;4.90;99.90;;;;;;5096412;28;20203;-48
2023/03/11 10:42:03;;;;;;;5.23;1.20;;;4.90;99.90;;;;;;5096428;28;20203;-50
2023/03/11 10:44:35;;;;;;;10.20;1.20;;;4.90;99.90;;;;;;5096799;28;20183;-47
2023/03/11 10:47:02;;;;;;;2.87;1.20;;;4.90;99.90;;;;;;5078118;28;20187;-48
2023/03/11 10:49:28;;;;;;;5.83;1.20;;;5.10;99.90;;;;;;5096430;28;20189;-49
2023/03/11 10:51:55;;;;;;;5.10;1.47;;;5.30;99.90;;;;;;5096121;28;20248;-49
2023/03/11 10:54:24;;;;;;;7.03;2.53;;;5.50;99.90;;;;;;5096105;28;20195;-46
2023/03/11 10:56:54;;;;;;;8.07;1.90;;;5.50;99.90;;;;;;5096306;28;20188;-49
2023/03/11 10:59:32;;;;;;;4.87;1.37;;;5.60;99.90;;;;;;5096188;28;20205;-50
2023/03/11 11:02:17;;;;;;;3.37;0.90;;;5.80;99.90;;;;;;5095815;28;20569;-47
2023/03/11 11:04:42;;;;;;;2.43;0.90;;;6.00;99.90;;;;;;5096441;28;20165;-48
2023/03/11 11:07:29;;;;;;;2.37;1.10;;;6.20;99.90;;;;;;5096200;28;20205;-48
2023/03/11 11:10:15;;;;;;;3.47;0.90;;;6.40;99.90;;;;;;5095848;28;20171;-48
2023/03/11 11:13:01;;;;;;;4.83;0.80;;;6.30;99.90;;;;;;5095765;28;20185;-48
2023/03/11 11:15:41;;;;;;;4.90;1.07;;;6.30;99.90;;;;;;5095999;28;20205;-48
2023/03/11 11:18:24;;;;;;;3.60;0.70;;;6.30;99.90;;;;;;5095863;28;20220;-49
2023/03/11 11:21:13;;;;;;;3.20;1.10;;;6.20;99.90;;;;;;5096095;28;20670;-48
2023/03/11 11:23:58;;;;;;;2.50;0.80;;;6.00;99.90;;;;;;5095485;28;20198;-48
2023/03/11 11:26:25;;;;;;;4.70;0.80;;;5.90;99.90;;;;;;5095431;28;20183;-47
2023/03/11 11:29:12;;;;;;;4.50;0.90;;;5.90;99.90;;;;;;5095660;28;20190;-49
2023/03/11 11:31:40;;;;;;;4.43;1.13;;;5.90;99.90;;;;;;5095574;28;20207;-48
2023/03/11 11:34:24;;;;;;;2.47;0.70;;;5.90;99.90;;;;;;5095319;28;20268;-47
2023/03/11 11:36:50;;;;;;;3.37;1.10;;;5.90;99.90;;;;;;5095440;28;20185;-49
2023/03/11 11:39:19;;;;;;;2.97;0.90;;;5.90;99.90;;;;;;5095120;28;20242;-49
2023/03/11 11:41:47;;;;;;;1.80;0.90;;;6.00;99.90;;;;;;5095313;28;20198;-49
2023/03/11 11:44:18;;;;;;;2.40;0.80;;;6.10;99.90;;;;;;5095213;28;20239;-51
2023/03/11 11:47:00;;;;;;;4.97;0.90;;;6.00;99.90;;;;;;5095347;28;20614;-50
2023/03/11 11:49:35;;;;;;;2.40;0.87;;;6.00;99.90;;;;;;5095057;28;20255;-54
2023/03/11 11:52:22;;;;;;;3.83;0.90;;;6.00;99.90;;;;;;5094925;28;20254;-53
2023/03/11 11:55:16;;;;;;;2.50;0.80;;;6.10;99.90;;;;;;5095229;28;20229;-50
2023/03/11 11:57:42;;;;;;;4.83;1.50;;;6.10;99.90;;;;;;5095147;28;20174;-51
2023/03/11 12:00:38;;;;;;;3.00;0.77;;;6.30;99.90;;;;;;5094592;28;20222;-50
2023/03/11 12:03:09;;;;;;;5.27;1.40;;;6.50;99.90;;;;;;5095361;28;20159;-53
2023/03/11 12:06:06;;;;;;;2.13;0.77;;;6.60;99.90;;;;;;5094003;28;20201;-52
2023/03/11 12:09:04;;;;;;;2.13;0.70;;;6.70;99.90;;;;;;5073510;28;20289;-51
2023/03/11 12:11:51;;;;;;;4.17;0.90;;;6.90;99.90;;;;;;5076414;28;20703;-51
2023/03/11 12:14:56;;;;;;;8.20;1.00;;;7.00;99.90;;;;;;5094841;28;20182;-52
2023/03/11 12:17:30;;;;;;;7.53;1.30;;;7.10;99.90;;;;;;5092555;28;20198;-50
2023/03/11 12:20:34;;;;;;;6.23;1.00;;;7.30;99.90;;;;;;5094621;28;20685;-51
2023/03/11 12:23:31;;;;;;;3.23;1.03;;;7.40;99.90;;;;;;5094716;28;20238;-52
2023/03/11 12:26:10;;;;;;;3.53;1.00;;;7.50;99.90;;;;;;5094228;28;20203;-52
2023/03/11 12:28:40;;;;;;;2.73;1.20;;;7.40;99.90;;;;;;5076136;28;20209;-51
2023/03/11 12:31:10;;;;;;;3.90;1.20;;;7.50;99.90;;;;;;5094127;28;20251;-50
2023/03/11 12:33:56;;;;;;;3.90;0.97;;;7.60;99.90;;;;;;5094474;28;20231;-51
2023/03/11 12:36:30;;;;;;;4.53;1.00;;;7.70;99.90;;;;;;5076083;28;20175;-50
2023/03/11 12:38:57;;;;;;;2.37;1.00;;;7.60;99.90;;;;;;5094420;28;20626;-53
2023/03/11 12:41:37;;;;;;;6.13;1.30;;;7.60;99.90;;;;;;5095252;28;20735;-52
2023/03/11 12:44:04;;;;;;;3.13;1.10;;;7.50;99.90;;;;;;5096367;28;20650;-52
2023/03/11 12:46:57;;;;;;;6.30;1.60;;;7.40;99.90;;;;;;5094111;28;20182;-53
2023/03/11 12:49:29;;;;;;;3.37;1.13;;;7.50;99.90;;;;;;5094322;28;20222;-52
2023/03/11 12:52:03;;;;;;;4.27;1.10;;;7.40;99.90;;;;;;5094058;28;20229;-49
2023/03/11 12:54:29;;;;;;;3.07;1.17;;;7.50;99.90;;;;;;5106320;28;20201;-52
2023/03/11 12:57:15;;;;;;;3.57;1.43;;;7.60;99.90;;;;;;5111865;28;20564;-52
2023/03/11 13:00:17;;;;;;;5.53;1.00;;;7.70;99.90;;;;;;5110697;28;20218;-50
2023/03/11 13:03:13;;;;;;;3.67;0.90;;;7.90;99.90;;;;;;5102827;28;20178;-52
2023/03/11 13:06:03;;;;;;;1.93;1.00;;;7.90;99.90;;;;;;5109310;28;20187;-51
2023/03/11 13:08:44;;;;;;;4.33;1.13;;;7.90;99.90;;;;;;5111692;28;20269;-51